Time;durP1;ratioP1;P1;durP2;ratioP2;P2;SDS_P1;SDS_P2;PMS_P1;PMS_P2;Temp;Humidity;BMP_temperature;BMP_pressure;BME280_temperature;BME280_humidity;BME280_pressure;Samples;Min_cycle;Max_cycle;Signal;HPM_P1;HPM_P2
2022/09/18 00:01:26;;;;;;;10.52;2.08;;;10.70;99.90;;;;;;7393160;19;20649;-80
2022/09/18 00:03:57;;;;;;;8.73;1.90;;;10.70;99.90;;;;;;7393161;19;20056;-79
2022/09/18 00:06:26;;;;;;;15.52;2.60;;;10.70;99.90;;;;;;7392938;19;20030;-80
2022/09/18 00:08:53;;;;;;;11.77;2.05;;;10.70;99.90;;;;;;7392735;19;20034;-79
2022/09/18 00:11:21;;;;;;;7.97;1.50;;;10.80;99.90;;;;;;7392754;19;20014;-80
2022/09/18 00:13:48;;;;;;;11.15;1.70;;;10.80;99.90;;;;;;7393165;19;20011;-80
2022/09/18 00:16:15;;;;;;;12.05;1.75;;;10.80;99.90;;;;;;7390594;19;20011;-80
2022/09/18 00:18:41;;;;;;;13.45;1.83;;;10.80;99.90;;;;;;7392150;19;20364;-80
2022/09/18 00:21:10;;;;;;;9.52;1.45;;;10.70;99.90;;;;;;7392242;19;20018;-80
2022/09/18 00:23:36;;;;;;;11.25;1.77;;;10.60;99.90;;;;;;7392486;19;20546;-80
2022/09/18 00:26:04;;;;;;;12.65;1.88;;;10.60;99.90;;;;;;7392684;19;20039;-80
2022/09/18 00:28:31;;;;;;;11.82;1.98;;;10.50;99.90;;;;;;7392513;19;20029;-80
2022/09/18 00:31:13;;;;;;;10.75;1.83;;;10.40;99.90;;;;;;7392585;19;20022;-80
2022/09/18 00:33:39;;;;;;;13.75;1.75;;;10.40;99.90;;;;;;7392424;19;20007;-80
2022/09/18 00:36:07;;;;;;;12.07;1.63;;;10.50;99.90;;;;;;7392587;19;20019;-80
2022/09/18 00:38:34;;;;;;;9.20;1.70;;;10.70;99.90;;;;;;7392542;19;20014;-80
2022/09/18 00:41:02;;;;;;;10.98;1.85;;;10.70;99.90;;;;;;7390703;19;20006;-80
2022/09/18 00:43:32;;;;;;;10.23;1.70;;;10.90;99.90;;;;;;7398950;19;20021;-80
2022/09/18 00:46:16;;;;;;;11.00;1.52;;;11.00;99.90;;;;;;7399912;19;20528;-80
2022/09/18 00:48:49;;;;;;;11.32;1.58;;;11.00;99.90;;;;;;7399286;19;20044;-80
2022/09/18 00:51:16;;;;;;;11.43;1.60;;;11.10;99.90;;;;;;7399329;19;20014;-80
2022/09/18 00:53:49;;;;;;;10.00;1.92;;;11.20;99.90;;;;;;7400369;19;20014;-79
2022/09/18 00:56:16;;;;;;;10.38;1.80;;;11.20;99.90;;;;;;7400457;19;20030;-79
2022/09/18 00:58:43;;;;;;;9.75;1.67;;;11.10;99.90;;;;;;7397338;19;20007;-79
2022/09/18 01:01:09;;;;;;;11.32;1.90;;;11.20;99.90;;;;;;7398743;19;20064;-80
2022/09/18 01:03:36;;;;;;;13.40;2.17;;;11.20;99.90;;;;;;7399240;19;20014;-80
2022/09/18 01:06:21;;;;;;;10.35;1.55;;;11.20;99.90;;;;;;7398874;19;20010;-80
2022/09/18 01:09:02;;;;;;;15.18;2.05;;;11.20;99.90;;;;;;7396871;19;20034;-79
2022/09/18 01:11:54;;;;;;;13.27;2.10;;;11.10;99.90;;;;;;7398556;19;20014;-79
2022/09/18 01:14:51;;;;;;;8.63;1.60;;;11.10;99.90;;;;;;7398735;19;20074;-80
2022/09/18 01:17:37;;;;;;;14.55;1.75;;;11.30;99.90;;;;;;7397894;19;20010;-80
2022/09/18 01:20:03;;;;;;;6.68;1.33;;;11.30;99.90;;;;;;7398202;19;20014;-80
2022/09/18 01:22:35;;;;;;;11.63;1.60;;;11.40;99.90;;;;;;7397041;19;20027;-80
2022/09/18 01:25:04;;;;;;;9.32;1.23;;;11.50;99.90;;;;;;7397937;19;20037;-80
2022/09/18 01:27:34;;;;;;;11.48;1.70;;;11.50;99.90;;;;;;7398477;19;20010;-80
2022/09/18 01:30:07;;;;;;;13.13;2.35;;;11.50;99.90;;;;;;7398076;19;20010;-80
2022/09/18 01:32:36;;;;;;;;;;;11.50;99.90;;;;;;7398511;19;20034;-80
2022/09/18 01:35:30;;;;;;;8.38;1.50;;;11.50;99.90;;;;;;7398220;19;19923;-79
2022/09/18 01:38:18;;;;;;;7.95;1.08;;;11.50;99.90;;;;;;7397845;19;20015;-79
2022/09/18 01:40:50;;;;;;;11.05;2.00;;;11.40;99.90;;;;;;7397426;19;20078;-78
2022/09/18 01:43:19;;;;;;;10.57;1.77;;;11.30;99.90;;;;;;7394996;19;20014;-79
2022/09/18 01:45:50;;;;;;;7.10;1.30;;;11.20;99.90;;;;;;7397340;19;20011;-79
2022/09/18 01:48:26;;;;;;;8.07;1.50;;;11.20;99.90;;;;;;7397262;19;20092;-80
2022/09/18 01:50:59;;;;;;;7.80;1.20;;;11.30;99.90;;;;;;7397407;19;20014;-80
2022/09/18 01:53:30;;;;;;;;;;;11.40;99.90;;;;;;7395048;19;20081;-80
2022/09/18 01:56:04;;;;;;;8.55;1.27;;;11.30;99.90;;;;;;7395837;19;19918;-80
2022/09/18 01:58:33;;;;;;;10.38;1.52;;;11.30;99.90;;;;;;7397453;19;20798;-80
2022/09/18 02:01:04;;;;;;;6.90;1.25;;;11.20;99.90;;;;;;7397102;19;20554;-80
2022/09/18 02:03:40;;;;;;;9.32;1.60;;;11.00;99.90;;;;;;7396911;19;20034;-81
2022/09/18 02:06:09;;;;;;;14.82;1.92;;;10.90;99.90;;;;;;7396778;19;20070;-80
2022/09/18 02:08:43;;;;;;;7.75;1.52;;;10.80;99.90;;;;;;7396390;19;20480;-80
2022/09/18 02:11:14;;;;;;;12.65;1.80;;;10.70;99.90;;;;;;7396654;19;20486;-80
2022/09/18 02:14:06;;;;;;;10.20;1.52;;;10.60;99.90;;;;;;7396578;19;20007;-80
2022/09/18 02:16:51;;;;;;;9.45;2.08;;;10.40;99.90;;;;;;7395032;19;20028;-80
2022/09/18 02:19:25;;;;;;;12.43;1.65;;;10.30;99.90;;;;;;7394495;19;20014;-79
2022/09/18 02:21:53;;;;;;;8.35;1.60;;;10.30;99.90;;;;;;7395524;19;20007;-80
2022/09/18 02:24:23;;;;;;;10.90;1.73;;;10.20;99.90;;;;;;7396002;19;20015;-79
2022/09/18 02:26:52;;;;;;;9.15;1.55;;;10.10;99.90;;;;;;7396024;19;20027;-80
2022/09/18 02:29:21;;;;;;;8.43;1.55;;;10.00;99.90;;;;;;7395986;19;20490;-80
2022/09/18 02:31:48;;;;;;;9.88;1.83;;;10.00;99.90;;;;;;7396286;19;20022;-80
2022/09/18 02:34:16;;;;;;;13.77;1.80;;;10.00;99.90;;;;;;7395676;19;20015;-79
2022/09/18 02:36:59;;;;;;;13.07;1.73;;;10.00;99.90;;;;;;7395771;19;20073;-80
2022/09/18 02:39:37;;;;;;;11.30;1.75;;;10.10;99.90;;;;;;7395903;19;20026;-80
2022/09/18 02:42:11;;;;;;;8.32;1.20;;;10.20;99.90;;;;;;7392846;19;20070;-80
2022/09/18 02:44:54;;;;;;;10.77;1.65;;;10.20;99.90;;;;;;7393950;19;20069;-80
2022/09/18 02:47:36;;;;;;;;;;;10.20;99.90;;;;;;7395680;19;20028;-80
2022/09/18 02:50:14;;;;;;;13.27;1.70;;;10.20;99.90;;;;;;7394169;19;19921;-80
2022/09/18 02:53:14;;;;;;;8.20;1.30;;;10.20;99.90;;;;;;7395772;19;20010;-80
2022/09/18 02:55:43;;;;;;;9.80;1.40;;;10.20;99.90;;;;;;7394062;19;20025;-80
2022/09/18 02:58:30;;;;;;;10.20;1.52;;;10.20;99.90;;;;;;7394750;19;20018;-80
2022/09/18 03:00:59;;;;;;;9.20;1.60;;;10.20;99.90;;;;;;7394945;19;20080;-80
2022/09/18 03:03:28;;;;;;;10.98;1.20;;;10.30;99.90;;;;;;7391446;19;20073;-80
2022/09/18 03:05:56;;;;;;;10.77;1.70;;;10.40;99.90;;;;;;7394198;19;20483;-79
2022/09/18 03:08:22;;;;;;;8.27;1.40;;;10.70;99.90;;;;;;7394452;19;20528;-80
2022/09/18 03:10:48;;;;;;;7.50;1.52;;;10.90;99.90;;;;;;7394567;19;20021;-81
2022/09/18 03:13:14;;;;;;;10.10;1.65;;;11.20;99.90;;;;;;7394605;19;20448;-80
2022/09/18 03:15:40;;;;;;;8.73;1.50;;;11.30;99.90;;;;;;7393785;19;20188;-78
2022/09/18 03:18:06;;;;;;;7.90;1.35;;;11.40;99.90;;;;;;7393344;19;20078;-79
2022/09/18 03:20:32;;;;;;;10.88;1.95;;;11.30;99.90;;;;;;7392355;19;20018;-80
2022/09/18 03:22:57;;;;;;;9.60;2.00;;;11.40;99.90;;;;;;7391272;19;20014;-80
2022/09/18 03:25:23;;;;;;;8.18;1.30;;;11.40;99.90;;;;;;7394769;19;20014;-80
2022/09/18 03:27:54;;;;;;;8.18;1.15;;;11.30;99.90;;;;;;7394310;19;20081;-79
2022/09/18 03:30:20;;;;;;;7.55;1.38;;;11.30;99.90;;;;;;7394076;19;20014;-80
2022/09/18 03:32:46;;;;;;;10.88;1.50;;;11.30;99.90;;;;;;7392564;19;20038;-80
2022/09/18 03:35:12;;;;;;;14.40;1.80;;;11.30;99.90;;;;;;7393870;19;20006;-79
2022/09/18 03:37:38;;;;;;;11.00;1.52;;;11.30;99.90;;;;;;7393700;19;20018;-79
2022/09/18 03:40:04;;;;;;;11.23;1.48;;;11.20;99.90;;;;;;7392536;19;20021;-80
2022/09/18 03:42:30;;;;;;;9.90;1.35;;;11.10;99.90;;;;;;7391187;19;20017;-81
2022/09/18 03:44:56;;;;;;;8.60;1.92;;;11.20;99.90;;;;;;7391950;19;20010;-80
2022/09/18 03:47:24;;;;;;;12.10;1.58;;;11.20;99.90;;;;;;7391631;19;20027;-80
2022/09/18 03:49:50;;;;;;;8.82;1.38;;;11.10;99.90;;;;;;7393258;19;20515;-80
2022/09/18 03:52:16;;;;;;;7.93;1.42;;;11.10;99.90;;;;;;7391630;19;20011;-80
2022/09/18 03:54:42;;;;;;;13.30;1.90;;;11.20;99.90;;;;;;7393006;19;20015;-80
2022/09/18 03:57:08;;;;;;;13.63;1.90;;;11.20;99.90;;;;;;7393535;19;20308;-80
2022/09/18 03:59:33;;;;;;;12.98;1.80;;;11.20;99.90;;;;;;7392159;19;20066;-80
2022/09/18 04:01:59;;;;;;;8.95;1.50;;;11.30;99.90;;;;;;7393532;19;20010;-80
2022/09/18 04:04:27;;;;;;;11.48;1.83;;;11.30;99.90;;;;;;7393393;19;20007;-80
2022/09/18 04:06:53;;;;;;;10.25;1.50;;;11.30;99.90;;;;;;7391830;19;20419;-80
2022/09/18 04:09:20;;;;;;;8.23;1.60;;;11.30;99.90;;;;;;7393284;19;20014;-80
2022/09/18 04:11:46;;;;;;;9.60;1.73;;;11.40;99.90;;;;;;7393305;19;20116;-80
2022/09/18 04:14:12;;;;;;;13.18;2.42;;;11.30;99.90;;;;;;7391406;19;20037;-80
2022/09/18 04:16:38;;;;;;;8.93;1.60;;;11.30;99.90;;;;;;7390493;19;20022;-80
2022/09/18 04:19:04;;;;;;;9.38;1.40;;;11.10;99.90;;;;;;7401463;19;20018;-79
2022/09/18 04:21:31;;;;;;;9.60;1.50;;;11.00;99.90;;;;;;7398227;19;20010;-80
2022/09/18 04:23:57;;;;;;;13.43;1.90;;;11.00;99.90;;;;;;7400464;19;20027;-80
2022/09/18 04:26:25;;;;;;;8.48;1.85;;;11.10;99.90;;;;;;7400253;19;20018;-80
2022/09/18 04:28:51;;;;;;;11.27;1.60;;;11.20;99.90;;;;;;7399135;19;20026;-80
2022/09/18 04:31:18;;;;;;;11.32;1.40;;;11.40;99.90;;;;;;7399912;19;20084;-80
2022/09/18 04:33:45;;;;;;;7.13;1.30;;;11.60;99.90;;;;;;7398342;19;20040;-80
2022/09/18 04:36:10;;;;;;;8.30;1.42;;;11.70;99.90;;;;;;7400129;19;20021;-80
2022/09/18 04:38:38;;;;;;;7.90;1.45;;;11.80;99.90;;;;;;7400042;19;20030;-79
2022/09/18 04:41:04;;;;;;;7.50;1.20;;;11.80;99.90;;;;;;7398600;19;20013;-79
2022/09/18 04:43:30;;;;;;;7.78;1.23;;;11.80;99.90;;;;;;7395029;19;20014;-80
2022/09/18 04:45:56;;;;;;;9.02;1.88;;;11.80;99.90;;;;;;7399511;19;20363;-80
2022/09/18 04:48:23;;;;;;;5.40;1.17;;;11.80;99.90;;;;;;7398650;19;20017;-80
2022/09/18 04:50:49;;;;;;;7.97;1.42;;;11.90;99.90;;;;;;7399396;19;20010;-79
2022/09/18 04:53:18;;;;;;;8.18;1.60;;;11.90;99.90;;;;;;7399349;19;20018;-79
2022/09/18 04:55:47;;;;;;;9.98;1.60;;;11.90;99.90;;;;;;7398959;19;20356;-79
2022/09/18 04:58:14;;;;;;;9.75;1.48;;;11.80;99.90;;;;;;7397858;19;20014;-79
2022/09/18 05:00:40;;;;;;;7.60;1.70;;;11.70;99.90;;;;;;7398666;19;20024;-80
2022/09/18 05:03:07;;;;;;;10.23;1.70;;;11.60;99.90;;;;;;7395423;19;20086;-79
2022/09/18 05:05:34;;;;;;;8.05;1.40;;;11.50;99.90;;;;;;7397975;19;20015;-79
2022/09/18 05:08:02;;;;;;;10.68;1.45;;;11.40;99.90;;;;;;7398618;19;20011;-80
2022/09/18 05:10:28;;;;;;;8.20;1.10;;;11.40;99.90;;;;;;7398754;19;20026;-79
2022/09/18 05:12:54;;;;;;;6.78;1.30;;;11.40;99.90;;;;;;7398534;19;20014;-79
2022/09/18 05:15:21;;;;;;;11.88;1.40;;;11.40;99.90;;;;;;7396242;19;20014;-79
2022/09/18 05:17:47;;;;;;;5.22;0.95;;;11.40;99.90;;;;;;7398192;19;20074;-79
2022/09/18 05:20:13;;;;;;;10.68;1.90;;;11.30;99.90;;;;;;7396141;19;20032;-79
2022/09/18 05:22:46;;;;;;;7.88;1.25;;;11.30;99.90;;;;;;7397101;19;20010;-79
2022/09/18 05:25:13;;;;;;;10.18;1.35;;;11.30;99.90;;;;;;7397021;19;20011;-79
2022/09/18 05:27:39;;;;;;;11.60;1.25;;;11.40;99.90;;;;;;7396335;19;20032;-79
2022/09/18 05:30:07;;;;;;;6.82;1.15;;;11.60;99.90;;;;;;7397790;19;20492;-80
2022/09/18 05:32:33;;;;;;;8.90;1.33;;;11.60;99.90;;;;;;7398271;19;20010;-79
2022/09/18 05:34:59;;;;;;;7.57;1.30;;;11.60;99.90;;;;;;7396743;19;20014;-79
2022/09/18 05:37:25;;;;;;;7.28;1.65;;;11.60;99.90;;;;;;7396097;19;20015;-79
2022/09/18 05:39:51;;;;;;;8.63;1.38;;;11.60;99.90;;;;;;7397742;19;20047;-79
2022/09/18 05:42:17;;;;;;;7.50;1.20;;;11.50;99.90;;;;;;7394766;19;20026;-79
2022/09/18 05:44:43;;;;;;;8.82;1.55;;;11.50;99.90;;;;;;7397800;19;20011;-78
2022/09/18 05:47:09;;;;;;;8.73;1.30;;;11.60;99.90;;;;;;7397205;19;20011;-79
2022/09/18 05:49:36;;;;;;;8.48;1.52;;;11.60;99.90;;;;;;7397000;19;20348;-78
2022/09/18 05:52:02;;;;;;;10.40;1.58;;;11.50;99.90;;;;;;7395801;19;20077;-79
2022/09/18 05:54:28;;;;;;;7.45;1.10;;;11.50;99.90;;;;;;7395600;19;20010;-79
2022/09/18 05:56:54;;;;;;;5.18;1.30;;;11.60;99.90;;;;;;7395743;19;20376;-79
2022/09/18 05:59:20;;;;;;;9.27;1.40;;;11.80;99.90;;;;;;7397098;19;20102;-80
2022/09/18 06:01:46;;;;;;;9.15;1.38;;;11.80;99.90;;;;;;7396698;19;20372;-80
2022/09/18 06:04:12;;;;;;;9.15;1.98;;;11.80;99.90;;;;;;7397014;19;20014;-80
2022/09/18 06:06:38;;;;;;;7.72;1.52;;;11.90;99.90;;;;;;7395413;19;20007;-78
2022/09/18 06:09:04;;;;;;;8.98;1.30;;;11.90;99.90;;;;;;7397062;19;20010;-80
2022/09/18 06:11:30;;;;;;;7.25;1.60;;;11.90;99.90;;;;;;7396988;19;20015;-80
2022/09/18 06:14:02;;;;;;;5.60;1.13;;;11.90;99.90;;;;;;7395527;19;20011;-81
2022/09/18 06:16:31;;;;;;;3.17;0.90;;;12.00;99.90;;;;;;7396381;19;20018;-81
2022/09/18 06:18:58;;;;;;;6.28;1.08;;;12.00;99.90;;;;;;7394457;19;20078;-80
2022/09/18 06:21:24;;;;;;;7.97;1.13;;;11.90;99.90;;;;;;7394631;19;20043;-80
2022/09/18 06:23:50;;;;;;;5.57;1.20;;;11.90;99.90;;;;;;7394779;19;20006;-80
2022/09/18 06:26:16;;;;;;;6.70;1.20;;;12.00;99.90;;;;;;7394473;19;20042;-80
2022/09/18 06:28:42;;;;;;;6.80;1.00;;;12.00;99.90;;;;;;7396006;19;20070;-81
2022/09/18 06:31:09;;;;;;;6.40;1.15;;;12.00;99.90;;;;;;7394115;19;20017;-81
2022/09/18 06:33:35;;;;;;;5.90;1.13;;;12.10;99.90;;;;;;7396232;19;20133;-80
2022/09/18 06:36:07;;;;;;;7.00;1.23;;;12.20;99.90;;;;;;7394501;19;20021;-80
2022/09/18 06:38:33;;;;;;;5.07;1.10;;;12.30;99.90;;;;;;7395403;19;20464;-81
2022/09/18 06:40:58;;;;;;;9.02;1.17;;;12.30;99.90;;;;;;7394030;19;20555;-81
2022/09/18 06:43:24;;;;;;;8.07;1.23;;;12.30;99.90;;;;;;7393772;19;20092;-80
2022/09/18 06:45:55;;;;;;;6.82;0.80;;;12.30;99.90;;;;;;7395544;19;20010;-80
2022/09/18 06:48:22;;;;;;;7.35;1.27;;;12.20;99.90;;;;;;7395378;19;20011;-80
2022/09/18 06:50:53;;;;;;;7.13;1.30;;;12.10;99.90;;;;;;7395379;19;20031;-80
2022/09/18 06:53:20;;;;;;;9.73;1.20;;;12.00;99.90;;;;;;7393583;19;20483;-80
2022/09/18 06:55:47;;;;;;;5.93;0.85;;;11.90;99.90;;;;;;7395336;19;20014;-80
2022/09/18 06:58:16;;;;;;;4.07;1.20;;;11.80;99.90;;;;;;7395413;19;20015;-80
2022/09/18 07:00:43;;;;;;;5.47;1.13;;;11.90;99.90;;;;;;7395390;19;20016;-80
2022/09/18 07:03:09;;;;;;;7.00;1.10;;;12.10;99.90;;;;;;7394408;19;20015;-80
2022/09/18 07:05:40;;;;;;;4.95;1.00;;;12.20;99.90;;;;;;7394633;19;20038;-79
2022/09/18 07:08:06;;;;;;;8.40;1.35;;;12.20;99.90;;;;;;7394949;19;20023;-80
2022/09/18 07:10:32;;;;;;;7.30;0.93;;;12.20;99.90;;;;;;7393010;19;20014;-80
2022/09/18 07:12:58;;;;;;;7.05;0.90;;;12.20;99.90;;;;;;7393317;19;20007;-80
2022/09/18 07:15:25;;;;;;;8.93;1.08;;;12.30;99.90;;;;;;7396030;19;20475;-80
2022/09/18 07:17:55;;;;;;;6.65;0.90;;;12.30;99.90;;;;;;7394279;19;20011;-81
2022/09/18 07:20:21;;;;;;;5.95;0.80;;;12.20;99.90;;;;;;7393444;19;20425;-81
2022/09/18 07:22:56;;;;;;;5.80;1.10;;;12.30;99.90;;;;;;7393444;19;20021;-80
2022/09/18 07:25:22;;;;;;;6.65;1.35;;;12.40;99.90;;;;;;7394501;19;20055;-80
2022/09/18 07:27:48;;;;;;;4.70;0.98;;;12.50;99.90;;;;;;7394638;19;20029;-80
2022/09/18 07:30:16;;;;;;;5.88;1.05;;;12.50;99.90;;;;;;7392619;19;20016;-80
2022/09/18 07:32:42;;;;;;;4.20;0.80;;;12.60;99.90;;;;;;7393903;19;20007;-80
2022/09/18 07:35:09;;;;;;;4.38;1.10;;;12.70;99.90;;;;;;7394063;19;20082;-80
2022/09/18 07:37:36;;;;;;;6.55;0.95;;;12.60;99.90;;;;;;7394173;19;20532;-81
2022/09/18 07:40:03;;;;;;;5.55;0.80;;;12.70;99.90;;;;;;7393907;19;20078;-81
2022/09/18 07:42:29;;;;;;;8.05;0.90;;;12.70;99.90;;;;;;7393009;19;20017;-80
2022/09/18 07:44:56;;;;;;;4.85;0.90;;;12.70;99.90;;;;;;7393795;19;20406;-80
2022/09/18 07:47:24;;;;;;;8.23;1.13;;;12.70;99.90;;;;;;7393475;19;20015;-81
2022/09/18 07:49:50;;;;;;;7.13;1.10;;;12.80;99.90;;;;;;7393833;19;20023;-80
2022/09/18 07:52:17;;;;;;;4.20;0.90;;;12.60;99.90;;;;;;7390811;19;20015;-80
2022/09/18 07:54:43;;;;;;;5.53;0.98;;;12.50;99.90;;;;;;7393624;19;20003;-80
2022/09/18 07:57:09;;;;;;;7.18;1.42;;;12.40;99.90;;;;;;7393285;19;20033;-80
2022/09/18 07:59:35;;;;;;;6.03;0.80;;;12.30;99.90;;;;;;7391716;19;20010;-80
2022/09/18 08:02:01;;;;;;;5.97;1.10;;;12.20;99.90;;;;;;7393024;19;20014;-80
2022/09/18 08:04:28;;;;;;;6.05;1.13;;;12.20;99.90;;;;;;7391865;19;20013;-80
2022/09/18 08:06:56;;;;;;;9.68;1.33;;;12.10;99.90;;;;;;7392994;19;20011;-80
2022/09/18 08:09:22;;;;;;;8.73;1.20;;;12.10;99.90;;;;;;7393475;19;20506;-80
2022/09/18 08:11:52;;;;;;;4.50;1.00;;;11.90;99.90;;;;;;7391480;19;20015;-80
2022/09/18 08:14:19;;;;;;;7.63;1.15;;;11.90;99.90;;;;;;7392661;19;20022;-80
2022/09/18 08:16:46;;;;;;;6.45;0.95;;;11.80;99.90;;;;;;7389441;19;20011;-80
2022/09/18 08:19:12;;;;;;;6.40;1.10;;;11.80;99.90;;;;;;7392488;19;20484;-80
2022/09/18 08:21:40;;;;;;;6.60;0.93;;;11.80;99.90;;;;;;7391810;19;20018;-80
2022/09/18 08:24:07;;;;;;;6.20;0.98;;;11.70;99.90;;;;;;7391332;19;20502;-81
2022/09/18 08:26:37;;;;;;;6.30;0.98;;;11.50;99.90;;;;;;7392979;19;20038;-81
2022/09/18 08:29:05;;;;;;;5.10;1.00;;;11.50;99.90;;;;;;7393002;19;20034;-81
2022/09/18 08:31:30;;;;;;;7.97;1.45;;;11.50;99.90;;;;;;7390573;19;20007;-80
2022/09/18 08:33:56;;;;;;;3.65;0.70;;;11.60;99.90;;;;;;7390661;19;20025;-80
2022/09/18 08:36:23;;;;;;;3.85;1.00;;;11.70;99.90;;;;;;7392844;19;20522;-80
2022/09/18 08:38:53;;;;;;;5.47;0.77;;;11.80;99.90;;;;;;7391555;19;20021;-80
2022/09/18 08:41:30;;;;;;;5.60;0.80;;;11.90;99.90;;;;;;7392093;19;20021;-81
2022/09/18 08:44:03;;;;;;;4.68;0.80;;;11.90;99.90;;;;;;7392531;19;20019;-81
2022/09/18 08:46:51;;;;;;;4.35;0.80;;;11.90;99.90;;;;;;7392012;19;20010;-80
2022/09/18 08:49:29;;;;;;;4.50;0.90;;;12.00;99.90;;;;;;7391762;19;20424;-80
2022/09/18 08:52:08;;;;;;;4.65;0.70;;;12.20;99.90;;;;;;7391929;19;20034;-81
2022/09/18 08:54:50;;;;;;;4.68;0.85;;;12.20;99.90;;;;;;7391600;19;20025;-81
2022/09/18 08:57:31;;;;;;;4.18;0.80;;;12.20;99.90;;;;;;7392022;19;20025;-81
2022/09/18 09:00:11;;;;;;;4.72;0.80;;;12.30;99.90;;;;;;7391512;19;20015;-80
2022/09/18 09:02:41;;;;;;;4.80;0.93;;;12.30;99.90;;;;;;7389408;19;20110;-80
2022/09/18 09:05:28;;;;;;;5.15;1.13;;;12.20;99.90;;;;;;7399362;19;20007;-80
2022/09/18 09:08:12;;;;;;;7.13;0.90;;;12.30;99.90;;;;;;7398955;19;20011;-81
2022/09/18 09:11:08;;;;;;;6.65;0.93;;;12.40;99.90;;;;;;7397245;19;20010;-81
2022/09/18 09:13:56;;;;;;;4.57;1.13;;;12.60;99.90;;;;;;7398933;19;20013;-80
2022/09/18 09:16:41;;;;;;;6.47;1.13;;;12.70;99.90;;;;;;7397883;19;20015;-79
2022/09/18 09:19:27;;;;;;;3.78;0.73;;;12.70;99.90;;;;;;7396570;19;20010;-81
2022/09/18 09:22:46;;;;;;;3.20;0.90;;;12.70;99.90;;;;;;7397730;19;20014;-81
2022/09/18 09:25:34;;;;;;;3.83;0.80;;;12.80;99.90;;;;;;7394748;19;20018;-80
2022/09/18 09:28:15;;;;;;;3.88;0.73;;;13.00;99.90;;;;;;7398013;19;20014;-80
2022/09/18 09:30:45;;;;;;;5.22;1.20;;;13.10;99.90;;;;;;7398557;19;20445;-80
2022/09/18 09:33:29;;;;;;;7.70;0.90;;;13.00;99.90;;;;;;7397808;19;20026;-81
2022/09/18 09:36:04;;;;;;;6.20;0.82;;;12.90;99.90;;;;;;7398259;19;20010;-81
2022/09/18 09:38:49;;;;;;;4.00;0.80;;;12.90;99.90;;;;;;7398170;19;20509;-80
2022/09/18 09:41:31;;;;;;;5.50;0.80;;;13.00;99.90;;;;;;7397695;19;20010;-81
2022/09/18 09:44:20;;;;;;;6.43;0.90;;;13.10;99.90;;;;;;7398173;19;20010;-81
2022/09/18 09:47:11;;;;;;;4.93;0.70;;;13.30;99.90;;;;;;7397309;19;20017;-81
2022/09/18 09:49:43;;;;;;;5.38;0.90;;;13.30;99.90;;;;;;7397806;19;20018;-81
2022/09/18 09:52:20;;;;;;;4.57;0.70;;;13.50;99.90;;;;;;7397709;19;20007;-80
2022/09/18 09:55:18;;;;;;;5.95;1.13;;;13.50;99.90;;;;;;7397484;19;20025;-81
2022/09/18 09:58:04;;;;;;;3.20;0.80;;;13.60;99.90;;;;;;7397682;19;20639;-81
2022/09/18 10:00:41;;;;;;;5.43;1.02;;;13.70;99.90;;;;;;7397193;19;20070;-81
2022/09/18 10:04:00;;;;;;;6.03;1.10;;;13.80;99.90;;;;;;7395426;19;20011;-81
2022/09/18 10:06:49;;;;;;;3.72;0.93;;;13.90;99.90;;;;;;7395267;19;20050;-80
2022/09/18 10:09:37;;;;;;;7.55;1.17;;;13.90;99.90;;;;;;7397137;19;20011;-81
2022/09/18 10:12:26;;;;;;;6.15;0.80;;;14.10;99.90;;;;;;7395955;19;20041;-81
2022/09/18 10:14:58;;;;;;;6.50;1.13;;;14.20;99.90;;;;;;7394512;19;20014;-80
2022/09/18 10:17:33;;;;;;;7.40;1.35;;;14.20;99.90;;;;;;7396015;19;20025;-80
2022/09/18 10:20:00;;;;;;;4.68;0.88;;;14.20;99.90;;;;;;7395531;19;20391;-81
2022/09/18 10:22:27;;;;;;;4.43;1.00;;;14.30;99.90;;;;;;7394051;19;20023;-81
2022/09/18 10:25:00;;;;;;;7.43;1.45;;;14.30;99.90;;;;;;7395348;19;20352;-81
2022/09/18 10:27:27;;;;;;;8.02;1.20;;;14.40;99.90;;;;;;7396277;19;20032;-81
2022/09/18 10:29:55;;;;;;;6.32;1.45;;;14.40;99.90;;;;;;7396034;19;20078;-81
2022/09/18 10:32:40;;;;;;;7.05;1.30;;;14.30;99.90;;;;;;7396124;19;20006;-81
2022/09/18 10:35:41;;;;;;;3.97;1.00;;;14.30;99.90;;;;;;7395670;19;20015;-81
2022/09/18 10:38:31;;;;;;;9.10;1.40;;;14.40;99.90;;;;;;7395868;19;20034;-81
2022/09/18 10:41:10;;;;;;;6.10;0.88;;;14.30;99.90;;;;;;7395581;19;20013;-81
2022/09/18 10:44:04;;;;;;;5.88;1.23;;;14.40;99.90;;;;;;7393769;19;20438;-80
2022/09/18 10:46:35;;;;;;;6.57;1.00;;;14.40;99.90;;;;;;7393701;19;20018;-81
2022/09/18 10:49:22;;;;;;;11.10;1.50;;;14.40;99.90;;;;;;7395418;19;20081;-81
2022/09/18 10:52:02;;;;;;;8.38;1.40;;;14.40;99.90;;;;;;7395862;19;20014;-80
2022/09/18 10:54:30;;;;;;;5.60;1.15;;;14.50;99.90;;;;;;7393986;19;20018;-81
2022/09/18 10:57:32;;;;;;;6.75;1.05;;;14.60;99.90;;;;;;7393697;19;20094;-80
2022/09/18 10:59:58;;;;;;;6.63;1.10;;;14.60;99.90;;;;;;7395624;19;20474;-80
2022/09/18 11:02:27;;;;;;;6.88;1.30;;;14.60;99.90;;;;;;7394804;19;20017;-80
2022/09/18 11:05:02;;;;;;;6.13;1.08;;;14.70;99.90;;;;;;7394915;19;20374;-80
2022/09/18 11:07:28;;;;;;;5.00;0.98;;;14.80;99.90;;;;;;7394929;19;20372;-81
2022/09/18 11:09:54;;;;;;;7.82;1.40;;;14.80;99.90;;;;;;7395079;19;20014;-81
2022/09/18 11:12:23;;;;;;;5.80;0.93;;;15.00;99.90;;;;;;7398185;19;20015;-81
2022/09/18 11:15:01;;;;;;;7.03;1.10;;;15.00;99.90;;;;;;7392956;19;20007;-80
2022/09/18 11:17:33;;;;;;;7.50;1.30;;;15.00;99.90;;;;;;7392724;19;20018;-81
2022/09/18 11:20:01;;;;;;;7.43;1.30;;;15.10;99.90;;;;;;7393687;19;20427;-81
2022/09/18 11:22:43;;;;;;;9.60;1.90;;;15.00;99.90;;;;;;7393917;19;20030;-81
2022/09/18 11:25:27;;;;;;;7.82;1.52;;;14.90;99.90;;;;;;7394546;19;20027;-81
2022/09/18 11:27:58;;;;;;;7.47;1.85;;;14.90;99.90;;;;;;7394181;19;20077;-81
2022/09/18 11:30:29;;;;;;;6.75;1.02;;;14.90;99.90;;;;;;7394286;19;20085;-81
2022/09/18 11:33:12;;;;;;;6.45;1.00;;;15.00;99.90;;;;;;7392402;19;20011;-81
2022/09/18 11:35:45;;;;;;;5.68;1.00;;;15.10;99.90;;;;;;7392473;19;20480;-80
2022/09/18 11:38:15;;;;;;;10.13;1.38;;;15.20;99.90;;;;;;7393910;19;20010;-81
2022/09/18 11:40:51;;;;;;;9.55;1.40;;;15.20;99.90;;;;;;7393902;19;20037;-81
2022/09/18 11:43:25;;;;;;;7.32;1.67;;;15.30;99.90;;;;;;7392218;19;20031;-81
2022/09/18 11:46:03;;;;;;;6.57;1.30;;;15.30;99.90;;;;;;7395033;19;20097;-80
2022/09/18 11:48:31;;;;;;;7.93;1.30;;;15.30;99.90;;;;;;7393368;19;20015;-81
2022/09/18 11:51:01;;;;;;;6.35;1.08;;;15.30;99.90;;;;;;7391931;19;20504;-79
2022/09/18 11:53:36;;;;;;;13.02;1.67;;;15.20;99.90;;;;;;7392986;19;20018;-81
2022/09/18 11:56:18;;;;;;;6.38;1.40;;;15.10;99.90;;;;;;7393269;19;20502;-80
2022/09/18 11:58:51;;;;;;;8.30;1.47;;;14.90;99.90;;;;;;7391547;19;20014;-81
2022/09/18 12:01:35;;;;;;;10.30;2.05;;;14.90;99.90;;;;;;7393304;19;20830;-81
2022/09/18 12:04:20;;;;;;;8.65;1.20;;;15.10;99.90;;;;;;7393502;19;20032;-81
2022/09/18 12:07:02;;;;;;;7.70;1.30;;;15.50;99.90;;;;;;7391737;19;20018;-81
2022/09/18 12:09:46;;;;;;;8.60;1.63;;;15.90;99.90;;;;;;7393134;19;20013;-82
2022/09/18 12:12:23;;;;;;;7.28;1.60;;;16.10;99.90;;;;;;7392900;19;20011;-81
2022/09/18 12:15:11;;;;;;;6.35;1.00;;;16.20;99.90;;;;;;7391318;19;20018;-81
2022/09/18 12:18:13;;;;;;;12.15;1.50;;;16.40;99.90;;;;;;7392493;19;20015;-81
2022/09/18 12:20:41;;;;;;;7.15;1.20;;;16.50;99.90;;;;;;7391630;19;20022;-81
2022/09/18 12:23:13;;;;;;;8.20;1.20;;;16.70;99.90;;;;;;7391049;19;20017;-81
2022/09/18 12:25:46;;;;;;;8.38;1.30;;;16.80;99.90;;;;;;7391110;19;20496;-82
2022/09/18 12:28:17;;;;;;;6.40;1.38;;;16.90;99.90;;;;;;7392895;19;20216;-82
2022/09/18 12:30:54;;;;;;;7.70;1.20;;;16.90;99.90;;;;;;7392860;19;20015;-81
2022/09/18 12:33:26;;;;;;;8.98;1.23;;;16.60;99.90;;;;;;7392726;19;20014;-81
2022/09/18 12:36:11;;;;;;;7.28;1.17;;;16.30;99.90;;;;;;7392328;19;20043;-81
2022/09/18 12:39:27;;;;;;;7.90;1.40;;;16.20;99.90;;;;;;7396588;19;20015;-81
2022/09/18 12:41:55;;;;;;;8.98;1.40;;;15.90;99.90;;;;;;7395563;19;20021;-80
2022/09/18 12:44:33;;;;;;;8.20;1.02;;;15.80;99.90;;;;;;7397844;19;20021;-82
2022/09/18 12:47:24;;;;;;;8.48;1.27;;;15.70;99.90;;;;;;7399564;19;20028;-82
2022/09/18 12:50:30;;;;;;;9.52;1.23;;;15.50;99.90;;;;;;7399431;19;20382;-81
2022/09/18 12:53:02;;;;;;;5.90;1.30;;;15.50;99.90;;;;;;7397689;19;20014;-82
2022/09/18 12:55:59;;;;;;;6.65;1.10;;;15.60;99.90;;;;;;7399247;19;20014;-81
2022/09/18 12:58:49;;;;;;;7.95;1.23;;;15.60;99.90;;;;;;7399482;19;20016;-82
2022/09/18 13:01:37;;;;;;;6.82;1.10;;;15.70;99.90;;;;;;7399124;19;20021;-82
2022/09/18 13:04:21;;;;;;;6.85;1.10;;;15.80;99.90;;;;;;7398925;19;20017;-82
2022/09/18 13:06:54;;;;;;;9.35;1.50;;;15.80;99.90;;;;;;7397118;19;20012;-82
2022/09/18 13:09:30;;;;;;;10.77;1.20;;;15.60;99.90;;;;;;7400294;19;20025;-81
2022/09/18 13:12:17;;;;;;;8.77;1.30;;;15.60;99.90;;;;;;7398571;19;20088;-82
2022/09/18 13:14:50;;;;;;;8.88;1.52;;;15.40;99.90;;;;;;7398472;19;20519;-82